createdAt,value
2017-10-30T00:01:06.306Z,10.30
2017-10-30T00:03:33.842Z,11.10
2017-10-30T00:06:01.355Z,10.97
2017-10-30T00:08:29.627Z,10.75
2017-10-30T00:10:57.159Z,10.47
2017-10-30T00:13:24.707Z,9.80
2017-10-30T00:15:52.243Z,11.53
2017-10-30T00:18:19.781Z,12.53
2017-10-30T00:20:48.046Z,12.30
2017-10-30T00:23:15.567Z,10.00
2017-10-30T00:25:43.127Z,11.13
2017-10-30T00:28:10.658Z,9.60
2017-10-30T00:30:38.166Z,11.63
2017-10-30T00:33:05.710Z,10.77
2017-10-30T00:35:33.238Z,10.47
2017-10-30T00:38:12.676Z,11.60
2017-10-30T00:40:42.226Z,10.40
2017-10-30T00:43:09.724Z,10.13
2017-10-30T00:45:37.309Z,11.07
2017-10-30T00:48:04.820Z,10.43
2017-10-30T00:50:32.323Z,11.20
2017-10-30T00:52:59.881Z,11.13
2017-10-30T00:55:27.386Z,9.70
2017-10-30T00:57:54.891Z,11.93
2017-10-30T01:00:22.431Z,11.97
2017-10-30T01:02:50.722Z,12.50
2017-10-30T01:05:18.251Z,11.57
2017-10-30T01:07:45.911Z,10.00
2017-10-30T01:10:14.202Z,11.30
2017-10-30T01:12:42.486Z,9.80
2017-10-30T01:15:10.810Z,10.20
2017-10-30T01:17:38.353Z,10.10
2017-10-30T01:20:05.854Z,10.30
2017-10-30T01:22:33.398Z,12.30
2017-10-30T01:25:00.907Z,10.17
2017-10-30T01:27:29.771Z,9.27
2017-10-30T01:29:57.335Z,10.20
2017-10-30T01:32:24.859Z,9.33
2017-10-30T01:34:52.359Z,12.30
2017-10-30T01:37:20.686Z,13.03
2017-10-30T01:39:48.195Z,10.77
2017-10-30T01:42:16.486Z,10.50
2017-10-30T01:44:44.778Z,11.47
2017-10-30T01:47:12.298Z,11.60
2017-10-30T01:49:39.912Z,10.40
2017-10-30T01:52:07.471Z,8.77
2017-10-30T01:54:34.978Z,11.53
2017-10-30T01:57:02.507Z,11.43
2017-10-30T01:59:30.079Z,11.50
2017-10-30T02:01:57.608Z,10.60
2017-10-30T02:04:25.115Z,8.83
2017-10-30T02:06:52.978Z,11.37
2017-10-30T02:09:20.506Z,11.20
2017-10-30T02:11:48.042Z,12.47
2017-10-30T02:14:15.602Z,10.33
2017-10-30T02:16:43.102Z,9.30
2017-10-30T02:19:10.642Z,14.33
2017-10-30T02:21:38.221Z,10.05
2017-10-30T02:24:05.750Z,12.50
2017-10-30T02:26:33.278Z,9.97
2017-10-30T02:29:00.894Z,11.57
2017-10-30T02:31:28.395Z,10.83
2017-10-30T02:33:56.670Z,10.37
2017-10-30T02:36:24.987Z,9.50
2017-10-30T02:38:52.503Z,10.03
2017-10-30T02:41:21.153Z,9.33
2017-10-30T02:43:48.715Z,11.65
2017-10-30T02:46:16.242Z,10.47
2017-10-30T02:48:43.794Z,10.48
2017-10-30T02:51:11.331Z,10.73
2017-10-30T02:53:39.629Z,9.77
2017-10-30T02:56:07.162Z,10.43
2017-10-30T02:58:35.486Z,8.97
2017-10-30T03:01:02.999Z,8.83
2017-10-30T03:03:31.299Z,9.35
2017-10-30T03:05:58.831Z,9.47
2017-10-30T03:08:26.354Z,10.70
2017-10-30T03:10:53.855Z,9.73
2017-10-30T03:13:22.526Z,10.53
2017-10-30T03:15:50.059Z,10.07
2017-10-30T03:18:17.558Z,9.33
2017-10-30T03:20:45.907Z,10.97
2017-10-30T03:23:13.435Z,9.50
2017-10-30T03:25:40.971Z,8.97
2017-10-30T03:28:08.524Z,9.30
2017-10-30T03:30:36.819Z,9.00
2017-10-30T03:33:04.356Z,7.83
2017-10-30T03:35:32.682Z,8.70
2017-10-30T03:38:00.206Z,9.87
2017-10-30T03:40:27.718Z,9.47
2017-10-30T03:42:55.295Z,8.90
2017-10-30T03:45:22.827Z,9.90
2017-10-30T03:47:50.333Z,9.20
2017-10-30T03:50:18.639Z,9.87
2017-10-30T03:52:46.207Z,11.70
2017-10-30T03:55:13.727Z,8.27
2017-10-30T03:57:42.059Z,11.03
2017-10-30T04:00:09.603Z,10.07
2017-10-30T04:02:37.159Z,9.37
2017-10-30T04:05:04.706Z,10.00
2017-10-30T04:07:32.209Z,9.93
2017-10-30T04:09:59.731Z,11.13
2017-10-30T04:12:27.327Z,9.20
2017-10-30T04:14:54.839Z,9.20
2017-10-30T04:17:22.359Z,9.10
2017-10-30T04:19:49.886Z,8.93
2017-10-30T04:22:17.379Z,9.70
2017-10-30T04:24:44.906Z,9.97
2017-10-30T04:27:12.474Z,8.53
2017-10-30T04:29:39.999Z,8.80
2017-10-30T04:32:07.505Z,9.93
2017-10-30T04:34:35.024Z,9.40
2017-10-30T04:37:02.522Z,9.30
2017-10-30T04:39:30.044Z,9.23
2017-10-30T04:41:57.595Z,10.47
2017-10-30T04:44:25.102Z,8.40
2017-10-30T04:46:53.136Z,8.90
2017-10-30T04:49:20.659Z,9.10
2017-10-30T04:51:48.926Z,9.67
2017-10-30T04:54:17.601Z,10.97
2017-10-30T04:56:45.166Z,8.80
2017-10-30T04:59:12.689Z,9.00
2017-10-30T05:01:40.211Z,8.30
2017-10-30T05:04:08.540Z,9.77
2017-10-30T05:06:36.047Z,9.90
2017-10-30T05:09:04.327Z,11.80
2017-10-30T05:11:31.883Z,9.40
2017-10-30T05:13:59.414Z,9.33
2017-10-30T05:16:26.948Z,9.03
2017-10-30T05:18:55.291Z,8.63
2017-10-30T05:21:22.822Z,9.47
2017-10-30T05:23:51.107Z,9.27
2017-10-30T05:26:19.422Z,9.00
2017-10-30T05:28:47.051Z,10.10
2017-10-30T05:31:15.342Z,8.83
2017-10-30T05:33:42.905Z,7.80
2017-10-30T05:36:10.435Z,8.83
2017-10-30T05:38:39.075Z,9.30
2017-10-30T05:41:06.766Z,9.40
2017-10-30T05:43:34.290Z,9.00
2017-10-30T05:46:01.790Z,7.90
2017-10-30T05:48:29.358Z,8.10
2017-10-30T05:50:56.859Z,7.80
2017-10-30T05:53:24.391Z,8.00
2017-10-30T05:55:52.683Z,8.57
2017-10-30T05:58:20.206Z,8.83
2017-10-30T06:00:47.738Z,9.70
2017-10-30T06:03:15.295Z,8.67
2017-10-30T06:05:42.819Z,7.07
2017-10-30T06:08:10.323Z,9.27
2017-10-30T06:10:37.870Z,10.50
2017-10-30T06:13:05.385Z,8.48
2017-10-30T06:15:32.919Z,7.22
2017-10-30T06:18:00.438Z,8.53
2017-10-30T06:20:27.966Z,8.70
2017-10-30T06:22:55.482Z,8.65
2017-10-30T06:25:23.112Z,10.03
2017-10-30T06:27:51.085Z,9.60
2017-10-30T06:30:18.591Z,8.50
2017-10-30T06:32:46.123Z,7.80
2017-10-30T06:35:13.660Z,8.90
2017-10-30T06:37:41.158Z,8.50
2017-10-30T06:40:08.703Z,8.27
2017-10-30T06:42:36.203Z,7.70
2017-10-30T06:45:04.490Z,7.63
2017-10-30T06:47:32.097Z,7.60
2017-10-30T06:49:59.628Z,9.50
2017-10-30T06:52:27.140Z,10.60
2017-10-30T06:54:54.688Z,9.60
2017-10-30T06:57:22.274Z,8.40
2017-10-30T06:59:50.544Z,8.10
2017-10-30T07:02:33.774Z,9.77
2017-10-30T07:05:01.271Z,9.83
2017-10-30T07:07:28.787Z,16.30
2017-10-30T07:09:56.334Z,13.17
2017-10-30T07:12:23.850Z,16.00
2017-10-30T07:14:51.393Z,14.63
2017-10-30T07:17:18.928Z,17.50
2017-10-30T07:19:46.511Z,20.37
2017-10-30T07:22:14.014Z,20.83
2017-10-30T07:24:42.394Z,21.83
2017-10-30T07:27:09.927Z,22.77
2017-10-30T07:29:37.674Z,23.75
2017-10-30T07:32:05.198Z,21.37
2017-10-30T07:34:32.703Z,45.53
2017-10-30T07:37:00.202Z,59.40
2017-10-30T07:39:27.760Z,31.87
2017-10-30T07:41:55.309Z,28.07
2017-10-30T07:44:22.826Z,32.10
2017-10-30T07:46:50.382Z,53.97
2017-10-30T07:49:17.915Z,42.20
2017-10-30T07:51:46.347Z,50.70
2017-10-30T07:54:13.987Z,84.83
2017-10-30T07:56:41.540Z,60.72
2017-10-30T07:59:09.070Z,59.85
2017-10-30T08:01:36.646Z,51.90
2017-10-30T08:04:04.154Z,70.13
2017-10-30T08:06:31.658Z,53.03
2017-10-30T08:09:10.020Z,75.00
2017-10-30T08:11:39.106Z,69.10
2017-10-30T08:14:06.651Z,61.27
2017-10-30T08:16:34.243Z,63.47
2017-10-30T08:19:01.814Z,65.10
2017-10-30T08:21:29.327Z,68.80
2017-10-30T08:23:56.882Z,82.93
2017-10-30T08:26:25.193Z,73.80
2017-10-30T08:28:52.786Z,66.40
2017-10-30T08:31:20.347Z,68.87
2017-10-30T08:33:47.866Z,71.13
2017-10-30T08:36:15.414Z,66.97
2017-10-30T08:38:42.988Z,59.83
2017-10-30T08:41:10.494Z,68.30
2017-10-30T08:43:38.023Z,59.97
2017-10-30T08:46:05.588Z,69.50
2017-10-30T08:48:33.109Z,64.60
2017-10-30T08:51:00.651Z,71.05
2017-10-30T08:53:29.013Z,81.13
2017-10-30T08:55:56.542Z,82.60
2017-10-30T08:58:24.091Z,72.10
2017-10-30T09:00:51.747Z,76.47
2017-10-30T09:03:19.296Z,77.60
2017-10-30T09:05:46.852Z,90.07
2017-10-30T09:08:14.400Z,86.60
2017-10-30T09:10:42.675Z,84.63
2017-10-30T09:13:10.954Z,82.00
2017-10-30T09:15:40.075Z,84.27
2017-10-30T09:18:07.607Z,91.77
2017-10-30T09:20:35.143Z,82.13
2017-10-30T09:23:02.756Z,84.25
2017-10-30T09:25:31.033Z,91.80
2017-10-30T09:27:59.411Z,80.80
2017-10-30T09:30:26.999Z,84.20
2017-10-30T09:32:54.600Z,87.72
2017-10-30T09:35:23.469Z,78.22
2017-10-30T09:37:51.034Z,80.37
2017-10-30T09:40:18.557Z,87.07
2017-10-30T09:42:46.074Z,83.63
2017-10-30T09:45:14.397Z,86.00
2017-10-30T09:47:41.906Z,79.83
2017-10-30T09:50:10.943Z,74.27
2017-10-30T09:52:38.500Z,74.10
2017-10-30T09:55:06.062Z,68.43
2017-10-30T09:57:33.631Z,77.50
2017-10-30T10:00:01.186Z,79.97
2017-10-30T10:02:28.698Z,81.07
2017-10-30T10:04:57.003Z,70.82
2017-10-30T10:07:24.589Z,89.18
2017-10-30T10:09:52.138Z,85.03
2017-10-30T10:12:19.688Z,79.67
2017-10-30T10:14:47.255Z,86.57
2017-10-30T10:17:14.762Z,73.70
2017-10-30T10:19:42.295Z,83.10
2017-10-30T10:22:09.826Z,83.10
2017-10-30T10:24:37.374Z,81.07
2017-10-30T10:27:04.926Z,87.20
2017-10-30T10:29:32.486Z,77.73
2017-10-30T10:32:00.067Z,74.93
2017-10-30T10:34:27.596Z,78.23
2017-10-30T10:36:55.902Z,77.95
2017-10-30T10:39:23.467Z,76.78
2017-10-30T10:41:50.998Z,77.00
2017-10-30T10:47:14.547Z,74.67
2017-10-30T10:49:42.087Z,76.93
2017-10-30T10:52:10.141Z,79.57
2017-10-30T10:54:37.698Z,77.27
2017-10-30T10:57:05.252Z,73.63
2017-10-30T10:59:32.790Z,80.10
2017-10-30T11:02:00.343Z,80.65
2017-10-30T11:04:28.664Z,77.55
2017-10-30T11:06:56.202Z,87.12
2017-10-30T11:09:23.751Z,91.83
2017-10-30T11:11:51.302Z,77.80
2017-10-30T11:26:52.466Z,61.80
2017-10-30T11:29:19.966Z,64.80
2017-10-30T11:44:23.246Z,55.30
2017-10-30T11:59:21.794Z,45.43
2017-10-30T12:14:11.394Z,42.47
2017-10-30T12:16:39.708Z,42.27
2017-10-30T12:31:48.241Z,38.17
2017-10-30T12:46:22.210Z,40.67
2017-10-30T13:03:29.931Z,31.67
2017-10-30T13:20:25.272Z,28.43
2017-10-30T13:22:53.546Z,33.67
2017-10-30T13:37:32.031Z,26.00
2017-10-30T13:52:22.438Z,32.73
2017-10-30T13:54:49.975Z,36.90
2017-10-30T13:57:17.482Z,37.43
2017-10-30T13:59:45.022Z,41.87
2017-10-30T14:14:34.085Z,38.47
2017-10-30T14:17:02.382Z,41.00
2017-10-30T14:19:30.337Z,39.30
2017-10-30T14:21:57.890Z,37.07
2017-10-30T14:24:25.413Z,35.93
2017-10-30T14:26:54.090Z,33.60
2017-10-30T14:29:21.672Z,37.40
2017-10-30T14:44:32.174Z,35.10
2017-10-30T14:59:33.773Z,30.07
2017-10-30T15:02:01.315Z,35.40
2017-10-30T15:04:29.599Z,29.37
2017-10-30T15:06:57.902Z,31.53
2017-10-30T15:26:15.058Z,26.60
2017-10-30T15:28:42.603Z,28.30
2017-10-30T15:31:10.152Z,28.83
2017-10-30T15:33:37.728Z,31.00
2017-10-30T15:36:05.261Z,28.40
2017-10-30T15:51:13.575Z,31.50
2017-10-30T16:05:58.495Z,27.30
2017-10-30T16:08:26.795Z,29.87
2017-10-30T16:23:16.194Z,28.40
2017-10-30T16:25:43.722Z,29.40
2017-10-30T16:28:11.310Z,26.97
2017-10-30T16:43:10.264Z,30.10
2017-10-30T16:47:29.439Z,26.90
2017-10-30T16:49:56.984Z,25.67
2017-10-30T17:04:39.059Z,25.00
2017-10-30T17:07:06.570Z,24.07
2017-10-30T17:09:34.111Z,32.33
2017-10-30T17:12:01.757Z,31.70
2017-10-30T17:14:29.315Z,27.50
2017-10-30T17:16:56.843Z,34.10
2017-10-30T17:31:44.022Z,32.33
2017-10-30T17:34:11.636Z,36.70
2017-10-30T17:36:39.176Z,38.40
2017-10-30T17:39:06.740Z,35.50
2017-10-30T17:54:12.124Z,33.50
2017-10-30T18:09:05.342Z,32.30
2017-10-30T18:11:32.859Z,32.63
2017-10-30T18:14:00.374Z,33.33
2017-10-30T18:31:29.409Z,32.83
2017-10-30T18:33:57.716Z,31.73
2017-10-30T18:36:25.238Z,33.17
2017-10-30T18:58:14.929Z,32.60
2017-10-30T19:00:42.467Z,29.40
2017-10-30T19:03:10.013Z,29.50
2017-10-30T19:05:37.563Z,28.07
2017-10-30T19:20:34.910Z,28.40
2017-10-30T19:35:26.910Z,31.57
2017-10-30T19:37:54.419Z,30.57
2017-10-30T19:40:23.273Z,27.47
2017-10-30T19:54:51.997Z,31.87
2017-10-30T20:09:23.834Z,27.13
2017-10-30T20:24:29.631Z,36.37
2017-10-30T20:26:57.172Z,35.60
2017-10-30T20:29:24.712Z,29.33
2017-10-30T20:31:53.123Z,33.20
2017-10-30T20:46:58.718Z,31.60
2017-10-30T20:49:27.068Z,31.97
2017-10-30T20:51:54.616Z,33.27
2017-10-30T21:06:38.855Z,29.07
2017-10-30T21:21:03.601Z,28.37
2017-10-30T21:36:01.171Z,25.10
2017-10-30T21:55:07.515Z,28.10
2017-10-30T21:57:35.064Z,25.60
2017-10-30T22:00:02.627Z,25.05
2017-10-30T22:02:30.241Z,26.50
2017-10-30T22:04:58.589Z,25.50
2017-10-30T22:07:26.173Z,26.83
2017-10-30T22:09:53.708Z,27.83
2017-10-30T22:12:21.239Z,24.87
2017-10-30T22:14:48.807Z,24.00
2017-10-30T22:17:16.463Z,26.63
2017-10-30T22:31:50.179Z,25.30
2017-10-30T22:46:51.358Z,22.10
2017-10-30T23:08:04.707Z,21.80
2017-10-30T23:10:32.290Z,22.07
2017-10-30T23:13:00.619Z,22.27
2017-10-30T23:15:28.168Z,24.93
2017-10-30T23:17:55.923Z,24.10
2017-10-30T23:20:23.455Z,23.73
2017-10-30T23:22:51.182Z,22.20
2017-10-30T23:37:41.560Z,19.47
2017-10-30T23:40:09.110Z,23.48
2017-10-30T23:42:36.639Z,22.17
2017-10-30T23:57:20.774Z,21.73
2017-10-30T23:59:48.318Z,24.37
